Myra, Kentucky
Current Conditions -  °F | °C
As of 1:15 PM on Tuesday 21 Oct 2014 (Local Time) from KPBX Reporting Station
Overcast Overcast  
Wind Chill: 54°   Ceiling: 4900
Heat Index: 54°   Visibility: 10mi
Dew Point: 44°   Wind: 13mph
Humidity: 68%   Direction: 290°WNW
Pressure: 29.99"   Gusts: 17mph
Location:  37.29°N, 82.6°W
Report Text: KPBX 211715Z AUTO 29011G15KT 10SM SCT029 SCT035 OVC049 12/07 A2999 RMK AO2 T01230066
Loading
Personal Weather Stations






























Interactive Weather Map
Tropical Storm Tracking
New forecast layout! Learn more

10-Day Weather Forecast

Advertisements
Track Severe Weather on mobile